Time;durP1;ratioP1;P1;durP2;ratioP2;P2;SDS_P1;SDS_P2;PMS_P1;PMS_P2;Temp;Humidity;BMP_temperature;BMP_pressure;BME280_temperature;BME280_humidity;BME280_pressure;Samples;Min_cycle;Max_cycle;Signal;HPM_P1;HPM_P2
2021/09/14 00:01:28;;;;;;;0.40;0.40;;;17.60;99.90;;;;;;4963384;28;20213;-81
2021/09/14 00:03:54;;;;;;;0.23;0.23;;;17.50;99.90;;;;;;4971123;28;20187;-81
2021/09/14 00:06:19;;;;;;;0.20;0.20;;;17.30;99.90;;;;;;4961363;28;20193;-81
2021/09/14 00:08:45;;;;;;;0.70;0.53;;;17.20;99.90;;;;;;4967323;28;20219;-81
2021/09/14 00:11:11;;;;;;;0.50;0.50;;;17.20;99.90;;;;;;4967364;28;20188;-82
2021/09/14 00:13:37;;;;;;;0.50;0.50;;;17.10;99.90;;;;;;4971434;28;20190;-81
2021/09/14 00:16:02;;;;;;;0.47;0.47;;;16.90;99.90;;;;;;4967592;28;20216;-81
2021/09/14 00:18:28;;;;;;;0.50;0.50;;;16.90;99.90;;;;;;4959474;28;20180;-81
2021/09/14 00:20:54;;;;;;;0.30;0.30;;;17.00;99.90;;;;;;4965015;28;20204;-81
2021/09/14 00:23:19;;;;;;;0.30;0.30;;;16.90;99.90;;;;;;4968938;28;20216;-82
2021/09/14 00:25:45;;;;;;;0.50;0.43;;;16.90;99.90;;;;;;4962472;28;20551;-81
2021/09/14 00:28:11;;;;;;;0.70;0.47;;;16.80;99.90;;;;;;4970664;28;20614;-82
2021/09/14 00:30:36;;;;;;;0.47;0.47;;;16.70;99.90;;;;;;4959019;28;20233;-81
2021/09/14 00:33:02;;;;;;;1.23;0.20;;;16.60;99.90;;;;;;4968109;28;20192;-81
2021/09/14 00:35:27;;;;;;;0.53;0.50;;;16.60;99.90;;;;;;4960220;28;20189;-81
2021/09/14 00:37:53;;;;;;;0.33;0.27;;;16.60;99.90;;;;;;4969366;28;20202;-81
2021/09/14 00:40:19;;;;;;;0.43;0.40;;;16.60;99.90;;;;;;4965349;28;20240;-81
2021/09/14 00:42:44;;;;;;;0.30;0.30;;;16.70;99.90;;;;;;4962352;28;20343;-81
2021/09/14 00:45:10;;;;;;;0.33;0.33;;;16.70;99.90;;;;;;4960661;28;20259;-81
2021/09/14 00:47:36;;;;;;;0.50;0.40;;;16.70;99.90;;;;;;4969371;28;20199;-81
2021/09/14 00:50:05;;;;;;;0.30;0.30;;;16.60;99.90;;;;;;4967932;28;20213;-81
2021/09/14 00:52:32;;;;;;;0.23;0.23;;;16.70;99.90;;;;;;4963732;28;20203;-81
2021/09/14 00:54:57;;;;;;;0.73;0.73;;;16.70;99.90;;;;;;4971798;28;20236;-81
2021/09/14 00:57:23;;;;;;;4.03;0.40;;;16.70;99.90;;;;;;4964050;28;20181;-81
2021/09/14 00:59:48;;;;;;;0.23;0.23;;;16.70;99.90;;;;;;4965491;28;20224;-81
2021/09/14 01:02:15;;;;;;;0.40;0.40;;;16.70;99.90;;;;;;4972775;28;20180;-81
2021/09/14 01:04:40;;;;;;;0.30;0.30;;;16.70;99.90;;;;;;4961063;28;20224;-81
2021/09/14 01:07:06;;;;;;;0.20;0.20;;;16.60;99.90;;;;;;4974994;28;20220;-81
2021/09/14 01:09:34;;;;;;;0.23;0.23;;;16.70;99.90;;;;;;4967368;28;20217;-82
2021/09/14 01:12:00;;;;;;;0.50;0.40;;;16.60;99.90;;;;;;4974652;28;20173;-81
2021/09/14 01:14:25;;;;;;;0.20;0.20;;;16.60;99.90;;;;;;4975752;28;20184;-81
2021/09/14 01:16:51;;;;;;;0.63;0.47;;;16.70;99.90;;;;;;4974087;28;20192;-81
2021/09/14 01:19:17;;;;;;;0.27;0.20;;;16.70;99.90;;;;;;4972571;28;20211;-81
2021/09/14 01:21:42;;;;;;;0.10;0.10;;;16.70;99.90;;;;;;4974080;28;20787;-81
2021/09/14 01:24:08;;;;;;;0.33;0.33;;;16.80;99.90;;;;;;4967395;28;20283;-81
2021/09/14 01:26:34;;;;;;;0.20;0.20;;;16.70;99.90;;;;;;4968534;28;20195;-81
2021/09/14 01:29:08;;;;;;;1.37;0.47;;;16.70;99.90;;;;;;4970774;28;20238;-81
2021/09/14 01:31:34;;;;;;;0.30;0.30;;;16.80;99.90;;;;;;4968466;28;20657;-81
2021/09/14 01:33:59;;;;;;;0.50;0.50;;;16.80;99.90;;;;;;4968578;28;20177;-81
2021/09/14 01:36:32;;;;;;;1.27;0.50;;;16.90;99.90;;;;;;4961660;28;20196;-81
2021/09/14 01:38:58;;;;;;;0.20;0.20;;;16.90;99.90;;;;;;4969406;28;20267;-81
2021/09/14 01:41:23;;;;;;;0.70;0.70;;;16.90;99.90;;;;;;4975186;28;20669;-81
2021/09/14 01:43:50;;;;;;;0.93;0.63;;;17.00;99.90;;;;;;4969872;28;20195;-81
2021/09/14 01:46:15;;;;;;;0.33;0.33;;;17.00;99.90;;;;;;4965655;28;20188;-81
2021/09/14 01:48:41;;;;;;;0.60;0.60;;;16.90;99.90;;;;;;4972075;28;20686;-82
2021/09/14 01:51:06;;;;;;;0.83;0.70;;;16.80;99.90;;;;;;4970386;28;20212;-81
2021/09/14 01:53:32;;;;;;;0.60;0.60;;;16.80;99.90;;;;;;4973189;28;20192;-81
2021/09/14 01:56:06;;;;;;;0.40;0.40;;;16.70;99.90;;;;;;4969574;28;20191;-81
2021/09/14 01:58:31;;;;;;;0.40;0.37;;;16.70;99.90;;;;;;4968300;28;20196;-81
2021/09/14 02:01:13;;;;;;;0.57;0.57;;;16.70;99.90;;;;;;4965314;28;20212;-81
2021/09/14 02:59:37;;;;;;;0.60;0.60;;;16.20;99.90;;;;;;4966064;28;20361;-81
2021/09/14 03:02:04;;;;;;;2.10;0.67;;;16.10;99.90;;;;;;4968654;28;20243;-81
2021/09/14 03:04:30;;;;;;;0.50;0.50;;;16.10;99.90;;;;;;4963338;28;20227;-81
2021/09/14 03:06:56;;;;;;;3.10;0.37;;;16.00;99.90;;;;;;4967460;28;20193;-81
2021/09/14 03:09:22;;;;;;;0.70;0.70;;;15.90;99.90;;;;;;4972158;28;20222;-81
2021/09/14 03:11:48;;;;;;;0.57;0.57;;;15.90;99.90;;;;;;4971909;28;20270;-81
2021/09/14 03:14:14;;;;;;;0.50;0.50;;;15.70;99.90;;;;;;4971545;28;20720;-81
2021/09/14 03:16:40;;;;;;;0.60;0.60;;;15.80;99.90;;;;;;4971837;28;20192;-81
2021/09/14 03:19:06;;;;;;;0.57;0.57;;;15.80;99.90;;;;;;4972719;28;20239;-81
2021/09/14 03:21:32;;;;;;;0.63;0.63;;;15.80;99.90;;;;;;4966014;28;20212;-81
2021/09/14 03:23:57;;;;;;;0.20;0.20;;;15.90;99.90;;;;;;4971307;28;20203;-81
2021/09/14 03:26:23;;;;;;;0.40;0.40;;;15.90;99.90;;;;;;4972848;28;20210;-81
2021/09/14 03:28:49;;;;;;;0.50;0.50;;;15.90;99.90;;;;;;4966741;28;20288;-81
2021/09/14 03:31:18;;;;;;;0.20;0.20;;;15.90;99.90;;;;;;4973005;28;20278;-81
2021/09/14 03:33:44;;;;;;;2.30;0.40;;;15.80;99.90;;;;;;4970701;28;20270;-81
2021/09/14 03:36:10;;;;;;;0.53;0.53;;;15.80;99.90;;;;;;4968743;28;20668;-81
2021/09/14 03:38:35;;;;;;;1.33;1.13;;;15.60;99.90;;;;;;4971293;28;20202;-81
2021/09/14 03:41:01;;;;;;;0.17;0.17;;;15.50;99.90;;;;;;4972885;28;20651;-81
2021/09/14 03:43:26;;;;;;;0.50;0.40;;;15.50;99.90;;;;;;4972686;28;20191;-81
2021/09/14 03:45:52;;;;;;;0.43;0.43;;;15.60;99.90;;;;;;4973375;28;20233;-81
2021/09/14 03:48:18;;;;;;;0.57;0.40;;;15.60;99.90;;;;;;4971725;28;20203;-81
2021/09/14 03:50:44;;;;;;;0.37;0.37;;;15.70;99.90;;;;;;4966840;28;20597;-81
2021/09/14 03:53:10;;;;;;;0.40;0.40;;;15.80;99.90;;;;;;4967494;28;20187;-81
2021/09/14 03:55:36;;;;;;;0.70;0.40;;;15.70;99.90;;;;;;4965120;28;20274;-81
2021/09/14 03:58:02;;;;;;;1.13;0.30;;;15.80;99.90;;;;;;4973656;28;20793;-81
2021/09/14 04:00:28;;;;;;;0.40;0.40;;;15.80;99.90;;;;;;4964896;28;20212;-81
2021/09/14 04:03:06;;;;;;;0.50;0.50;;;15.70;99.90;;;;;;4969633;28;20230;-81
2021/09/14 04:05:39;;;;;;;0.10;0.10;;;15.70;99.90;;;;;;4961790;28;20212;-81
2021/09/14 04:10:39;;;;;;;0.67;0.50;;;15.80;99.90;;;;;;4971148;28;20275;-81
2021/09/14 04:13:05;;;;;;;0.40;0.40;;;15.80;99.90;;;;;;4971848;28;20202;-81
2021/09/14 04:15:31;;;;;;;0.90;0.43;;;15.90;99.90;;;;;;4958356;28;20602;-81
2021/09/14 04:17:56;;;;;;;0.40;0.40;;;15.80;99.90;;;;;;4973194;28;20226;-81
2021/09/14 04:20:22;;;;;;;0.77;0.77;;;15.70;99.90;;;;;;4973808;28;20210;-80
2021/09/14 04:22:47;;;;;;;0.87;0.60;;;15.60;99.90;;;;;;4970104;28;20191;-81
2021/09/14 04:25:13;;;;;;;0.87;0.53;;;15.50;99.90;;;;;;4969615;28;20194;-81
2021/09/14 04:27:39;;;;;;;2.10;0.97;;;15.40;99.90;;;;;;4973503;28;20193;-81
2021/09/14 04:30:06;;;;;;;0.40;0.40;;;15.30;99.90;;;;;;4973417;28;20210;-81
2021/09/14 04:32:32;;;;;;;0.63;0.57;;;15.20;99.90;;;;;;4975658;28;20188;-81
2021/09/14 04:34:59;;;;;;;0.60;0.60;;;15.20;99.90;;;;;;4970552;28;20300;-81
2021/09/14 04:37:24;;;;;;;1.40;0.90;;;15.10;99.90;;;;;;4973651;28;20217;-81
2021/09/14 04:39:51;;;;;;;0.50;0.50;;;15.10;99.90;;;;;;4972496;28;20213;-81
2021/09/14 04:42:17;;;;;;;0.37;0.37;;;15.10;99.90;;;;;;4976863;28;20204;-81
2021/09/14 04:44:43;;;;;;;1.03;0.93;;;15.00;99.90;;;;;;4974636;28;20280;-82
2021/09/14 04:47:09;;;;;;;0.27;0.27;;;15.00;99.90;;;;;;4969307;28;20549;-81
2021/09/14 04:49:34;;;;;;;0.23;0.23;;;15.10;99.90;;;;;;4975035;28;20226;-82
2021/09/14 04:52:05;;;;;;;0.93;0.50;;;15.10;99.90;;;;;;4970126;28;20282;-82
2021/09/14 04:54:30;;;;;;;0.50;0.50;;;15.10;99.90;;;;;;4968245;28;20190;-82
2021/09/14 04:56:56;;;;;;;0.20;0.20;;;15.00;99.90;;;;;;4970859;28;20188;-80
2021/09/14 04:59:22;;;;;;;0.80;0.60;;;14.90;99.90;;;;;;4972358;28;20267;-80
2021/09/14 05:01:47;;;;;;;0.40;0.40;;;14.70;99.90;;;;;;4975531;28;20248;-80
2021/09/14 05:04:13;;;;;;;0.47;0.47;;;14.90;99.90;;;;;;4965337;28;20276;-81
2021/09/14 05:06:38;;;;;;;0.40;0.40;;;15.00;99.90;;;;;;4973569;28;20198;-80
2021/09/14 05:09:04;;;;;;;0.20;0.20;;;15.10;99.90;;;;;;4968760;28;20597;-81
2021/09/14 05:11:29;;;;;;;0.40;0.40;;;15.20;99.90;;;;;;4970204;28;20278;-81
2021/09/14 05:13:55;;;;;;;0.50;0.50;;;15.30;99.90;;;;;;4968026;28;20202;-81
2021/09/14 05:16:20;;;;;;;0.70;0.50;;;15.30;99.90;;;;;;4976850;28;20186;-81
2021/09/14 05:18:48;;;;;;;0.33;0.33;;;15.40;99.90;;;;;;4974301;28;20185;-82
2021/09/14 05:21:14;;;;;;;0.40;0.40;;;15.30;99.90;;;;;;4974067;28;20202;-82
2021/09/14 05:23:40;;;;;;;0.23;0.23;;;15.30;99.90;;;;;;4972594;28;20198;-82
2021/09/14 05:26:06;;;;;;;0.80;0.80;;;15.00;99.90;;;;;;4973981;28;20202;-82
2021/09/14 05:28:35;;;;;;;0.50;0.50;;;15.00;99.90;;;;;;4971241;28;20213;-81
2021/09/14 05:31:01;;;;;;;0.50;0.40;;;14.90;99.90;;;;;;4971493;28;20203;-81
2021/09/14 05:33:28;;;;;;;0.43;0.43;;;14.90;99.90;;;;;;4969296;28;20198;-81
2021/09/14 05:35:55;;;;;;;1.60;0.67;;;14.90;99.90;;;;;;4973309;28;20189;-81
2021/09/14 05:38:24;;;;;;;0.27;0.27;;;14.90;99.90;;;;;;4963686;28;20195;-83
2021/09/14 05:40:55;;;;;;;0.27;0.27;;;15.10;99.90;;;;;;4971950;28;20219;-83
2021/09/14 05:43:22;;;;;;;2.00;0.83;;;15.30;99.90;;;;;;4973367;28;20191;-83
2021/09/14 05:45:47;;;;;;;0.37;0.37;;;15.50;99.90;;;;;;4961846;28;20676;-83
2021/09/14 05:48:13;;;;;;;1.00;0.43;;;15.80;99.90;;;;;;4965915;28;20235;-83
2021/09/14 05:50:41;;;;;;;0.27;0.27;;;16.00;99.90;;;;;;4963313;28;20224;-83
2021/09/14 05:53:06;;;;;;;0.30;0.30;;;16.20;99.90;;;;;;4967513;28;20241;-83
2021/09/14 05:55:35;;;;;;;0.63;0.63;;;16.40;99.90;;;;;;4965776;28;20187;-83
2021/09/14 05:58:02;;;;;;;1.27;1.17;;;16.40;99.90;;;;;;4969021;28;20187;-83
2021/09/14 06:00:27;;;;;;;0.70;0.70;;;16.50;99.90;;;;;;4966995;28;20211;-83
2021/09/14 06:02:53;;;;;;;0.33;0.33;;;16.50;99.90;;;;;;4974940;28;20274;-83
2021/09/14 06:05:18;;;;;;;0.83;0.83;;;16.50;99.90;;;;;;4973270;28;20191;-83
2021/09/14 06:07:45;;;;;;;0.87;0.77;;;16.60;99.90;;;;;;4974475;28;20227;-83
2021/09/14 06:10:11;;;;;;;0.70;0.70;;;16.70;99.90;;;;;;4972530;28;20283;-83
2021/09/14 06:12:36;;;;;;;0.30;0.30;;;16.80;99.90;;;;;;4973198;28;20716;-83
2021/09/14 06:15:02;;;;;;;0.43;0.43;;;16.90;99.90;;;;;;4963308;28;20187;-83
2021/09/14 06:17:28;;;;;;;0.30;0.30;;;17.00;99.90;;;;;;4968594;28;20183;-83
2021/09/14 06:19:53;;;;;;;0.93;0.87;;;17.10;99.90;;;;;;4968947;28;20258;-83
2021/09/14 06:22:20;;;;;;;0.70;0.70;;;17.10;99.90;;;;;;4970329;28;20243;-82
2021/09/14 06:24:47;;;;;;;0.40;0.40;;;17.20;99.90;;;;;;4972234;28;20234;-83
2021/09/14 06:27:13;;;;;;;0.37;0.37;;;17.30;99.90;;;;;;4973433;28;20276;-83
2021/09/14 06:29:39;;;;;;;0.40;0.40;;;17.30;99.90;;;;;;4970066;28;20220;-83
2021/09/14 06:32:09;;;;;;;0.53;0.53;;;17.40;99.90;;;;;;4965811;28;20191;-83
2021/09/14 06:34:35;;;;;;;0.43;0.43;;;17.50;99.90;;;;;;4969702;28;20653;-83
2021/09/14 06:37:01;;;;;;;0.67;0.67;;;17.50;99.90;;;;;;4971818;28;20276;-83
2021/09/14 06:39:27;;;;;;;0.33;0.33;;;17.50;99.90;;;;;;4973580;28;20649;-82
2021/09/14 06:41:52;;;;;;;1.00;0.87;;;17.40;99.90;;;;;;4972767;28;20649;-83
2021/09/14 06:44:18;;;;;;;1.20;0.90;;;17.70;99.90;;;;;;4964929;28;20196;-81
2021/09/14 06:46:45;;;;;;;0.70;0.70;;;18.00;99.90;;;;;;4972140;28;20192;-82
2021/09/14 06:49:10;;;;;;;0.30;0.30;;;18.20;99.90;;;;;;4973275;28;20228;-81
2021/09/14 06:51:36;;;;;;;1.97;0.73;;;18.40;99.90;;;;;;4966818;28;20189;-81
2021/09/14 06:54:02;;;;;;;0.43;0.43;;;18.60;99.90;;;;;;4974475;28;20188;-81
2021/09/14 06:56:28;;;;;;;1.33;0.70;;;18.70;99.90;;;;;;4973882;28;20185;-84
2021/09/14 06:58:54;;;;;;;0.77;0.73;;;18.80;99.90;;;;;;4974775;28;20198;-83
2021/09/14 07:01:20;;;;;;;0.27;0.27;;;19.00;99.90;;;;;;4965007;28;20220;-84
2021/09/14 07:03:46;;;;;;;0.43;0.43;;;19.10;99.90;;;;;;4965948;28;20196;-83
2021/09/14 07:06:11;;;;;;;0.43;0.43;;;19.30;99.90;;;;;;4970208;28;20198;-84
2021/09/14 07:08:37;;;;;;;0.40;0.40;;;19.40;99.90;;;;;;4966692;28;20213;-84
2021/09/14 07:11:02;;;;;;;2.27;1.30;;;19.60;99.90;;;;;;4972619;28;20236;-84
2021/09/14 07:13:28;;;;;;;0.53;0.53;;;19.80;99.90;;;;;;4968541;28;20220;-84
2021/09/14 07:15:54;;;;;;;0.63;0.50;;;20.00;99.90;;;;;;4958913;28;20244;-83
2021/09/14 07:18:19;;;;;;;0.67;0.40;;;20.10;99.90;;;;;;4968847;28;20201;-83
2021/09/14 07:20:45;;;;;;;0.37;0.37;;;20.20;99.90;;;;;;4972616;28;20213;-84
2021/09/14 07:23:10;;;;;;;0.70;0.70;;;20.30;99.90;;;;;;4970501;28;20186;-83
2021/09/14 07:25:39;;;;;;;1.57;0.87;;;20.40;99.90;;;;;;4964459;28;20674;-84
2021/09/14 07:28:05;;;;;;;1.70;0.90;;;20.40;99.90;;;;;;4970621;28;20220;-83
2021/09/14 07:30:31;;;;;;;1.27;0.80;;;20.30;99.90;;;;;;4957743;28;20212;-84
2021/09/14 07:32:56;;;;;;;0.57;0.57;;;20.30;99.90;;;;;;4968824;28;20181;-84
2021/09/14 07:35:22;;;;;;;0.30;0.30;;;20.40;99.90;;;;;;4972274;28;20547;-84
2021/09/14 07:37:49;;;;;;;1.00;0.90;;;20.30;99.90;;;;;;4972380;28;20539;-83
2021/09/14 07:40:14;;;;;;;0.40;0.30;;;20.40;99.90;;;;;;4961735;28;20217;-84
2021/09/14 07:42:40;;;;;;;1.13;1.03;;;20.50;99.90;;;;;;4962600;28;20251;-84
2021/09/14 07:45:06;;;;;;;0.63;0.63;;;20.60;99.90;;;;;;4969451;28;20212;-84
2021/09/14 07:47:32;;;;;;;1.10;0.50;;;20.80;99.90;;;;;;4972229;28;20184;-84
2021/09/14 07:49:57;;;;;;;0.67;0.63;;;20.60;99.90;;;;;;4965787;28;20208;-84
2021/09/14 07:52:23;;;;;;;0.77;0.60;;;20.50;99.90;;;;;;4968141;28;20239;-84
2021/09/14 07:54:49;;;;;;;0.50;0.50;;;20.80;99.90;;;;;;4968460;28;20191;-84
2021/09/14 07:57:14;;;;;;;0.50;0.50;;;21.10;99.90;;;;;;4957804;28;20188;-84
2021/09/14 07:59:40;;;;;;;0.40;0.40;;;21.30;99.90;;;;;;4970592;28;20204;-84
2021/09/14 08:02:06;;;;;;;0.50;0.50;;;21.50;99.90;;;;;;4972031;28;20254;-83
2021/09/14 08:04:31;;;;;;;2.23;0.80;;;21.40;99.90;;;;;;4971891;28;20212;-84
2021/09/14 08:06:57;;;;;;;0.40;0.40;;;21.10;99.90;;;;;;4959599;28;20653;-84
2021/09/14 08:09:25;;;;;;;0.70;0.40;;;21.40;99.90;;;;;;4970102;28;20215;-84
2021/09/14 08:11:51;;;;;;;0.43;0.43;;;21.70;99.90;;;;;;4958507;28;20181;-83
2021/09/14 08:14:16;;;;;;;0.70;0.70;;;21.80;99.90;;;;;;4963351;28;20641;-83
2021/09/14 08:16:42;;;;;;;0.83;0.83;;;22.00;99.90;;;;;;4969969;28;20184;-84
2021/09/14 08:19:07;;;;;;;0.80;0.80;;;22.10;99.90;;;;;;4971891;28;20632;-84
2021/09/14 08:21:33;;;;;;;0.23;0.23;;;22.20;99.90;;;;;;4964869;28;20219;-84
2021/09/14 08:23:58;;;;;;;0.83;0.80;;;22.40;99.90;;;;;;4958519;28;20188;-84
2021/09/14 08:26:24;;;;;;;2.77;1.10;;;22.40;99.90;;;;;;4966796;28;20193;-84
2021/09/14 08:28:50;;;;;;;0.60;0.47;;;22.40;99.90;;;;;;4971688;28;20306;-84
2021/09/14 08:31:15;;;;;;;0.53;0.53;;;22.10;99.90;;;;;;4969011;28;20216;-84
2021/09/14 08:33:41;;;;;;;0.37;0.37;;;21.80;99.90;;;;;;4971553;28;20193;-84
2021/09/14 08:36:07;;;;;;;0.63;0.63;;;22.20;99.90;;;;;;4971747;28;20200;-84
2021/09/14 08:38:33;;;;;;;0.43;0.43;;;22.40;99.90;;;;;;4971625;28;20188;-84
2021/09/14 08:41:00;;;;;;;0.30;0.30;;;22.60;99.90;;;;;;4958703;28;20212;-84
2021/09/14 08:43:25;;;;;;;0.73;0.73;;;22.90;99.90;;;;;;4966087;28;20188;-84
2021/09/14 08:45:51;;;;;;;0.73;0.50;;;22.90;99.90;;;;;;4967826;28;20195;-84
2021/09/14 08:48:17;;;;;;;0.87;0.67;;;22.70;99.90;;;;;;4960049;28;20782;-84
2021/09/14 08:50:43;;;;;;;0.63;0.63;;;22.80;99.90;;;;;;4965385;28;20546;-84
2021/09/14 08:53:09;;;;;;;1.20;1.07;;;22.80;99.90;;;;;;4967065;28;20196;-84
2021/09/14 08:55:37;;;;;;;0.63;0.50;;;22.70;99.90;;;;;;4971573;28;20189;-84
2021/09/14 08:58:06;;;;;;;0.87;0.87;;;22.80;99.90;;;;;;4965764;28;20308;-84
2021/09/14 09:00:41;;;;;;;0.50;0.50;;;22.40;99.90;;;;;;4957466;28;20305;-84
2021/09/14 09:03:07;;;;;;;0.70;0.70;;;22.60;99.90;;;;;;4965305;28;20192;-84
2021/09/14 09:05:39;;;;;;;1.10;1.00;;;23.00;99.90;;;;;;4971100;28;20195;-84
2021/09/14 09:08:18;;;;;;;0.80;0.80;;;22.90;99.90;;;;;;4963575;28;20341;-84
2021/09/14 09:11:06;;;;;;;0.67;0.67;;;23.20;99.90;;;;;;4972969;28;20212;-84
2021/09/14 09:13:34;;;;;;;0.43;0.43;;;23.30;99.90;;;;;;4970670;28;20548;-84
2021/09/14 09:16:00;;;;;;;0.63;0.50;;;23.30;99.90;;;;;;4969756;28;20177;-84
2021/09/14 09:18:26;;;;;;;0.33;0.33;;;23.50;99.90;;;;;;4965385;28;20251;-84
2021/09/14 09:21:01;;;;;;;1.30;0.73;;;23.20;99.90;;;;;;4974656;28;20209;-84
2021/09/14 09:23:27;;;;;;;1.70;0.60;;;23.20;99.90;;;;;;4971241;28;20187;-84
2021/09/14 09:26:05;;;;;;;1.00;0.70;;;23.60;99.90;;;;;;4960271;28;20240;-84
2021/09/14 09:28:30;;;;;;;0.37;0.37;;;23.70;99.90;;;;;;4960063;28;20212;-84
2021/09/14 09:30:59;;;;;;;1.20;0.60;;;23.60;99.90;;;;;;4968111;28;20213;-84
2021/09/14 09:33:31;;;;;;;0.40;0.40;;;23.90;99.90;;;;;;4971082;28;20271;-84
2021/09/14 09:36:08;;;;;;;0.50;0.50;;;23.80;99.90;;;;;;4961401;28;20180;-84
2021/09/14 09:38:48;;;;;;;0.70;0.70;;;23.70;99.90;;;;;;4969878;28;20200;-84
2021/09/14 09:41:21;;;;;;;0.43;0.43;;;24.00;99.90;;;;;;4972544;28;20610;-84
2021/09/14 09:43:48;;;;;;;1.77;0.67;;;23.00;99.90;;;;;;4972167;28;20180;-84
2021/09/14 09:46:21;;;;;;;0.80;0.80;;;22.80;99.90;;;;;;4965612;28;20216;-84
2021/09/14 09:48:47;;;;;;;0.90;0.90;;;23.10;99.90;;;;;;4966116;28;20216;-84
2021/09/14 09:51:14;;;;;;;1.47;1.00;;;22.60;99.90;;;;;;4969537;28;20656;-84
2021/09/14 09:53:39;;;;;;;0.70;0.70;;;22.90;99.90;;;;;;4961988;28;20566;-84
2021/09/14 09:56:06;;;;;;;0.70;0.70;;;22.80;99.90;;;;;;4965907;28;20192;-84
2021/09/14 09:58:32;;;;;;;0.70;0.70;;;22.50;99.90;;;;;;4969662;28;20200;-84
2021/09/14 10:01:03;;;;;;;2.87;2.37;;;22.50;99.90;;;;;;4964764;28;20205;-83
2021/09/14 10:03:32;;;;;;;0.83;0.70;;;22.60;99.90;;;;;;4964127;28;20226;-84
2021/09/14 10:06:08;;;;;;;1.03;0.90;;;23.40;99.90;;;;;;4966311;28;20239;-84
2021/09/14 10:08:34;;;;;;;0.40;0.40;;;24.00;99.90;;;;;;4971867;28;20693;-84
2021/09/14 10:11:00;;;;;;;0.73;0.73;;;24.30;99.90;;;;;;4967318;28;20201;-84
2021/09/14 10:13:36;;;;;;;0.63;0.60;;;23.90;99.90;;;;;;4959503;28;20215;-84
2021/09/14 10:16:02;;;;;;;0.50;0.50;;;24.30;99.90;;;;;;4959771;28;20176;-84
2021/09/14 10:18:30;;;;;;;0.60;0.53;;;24.60;99.90;;;;;;4968728;28;20560;-84
2021/09/14 10:20:56;;;;;;;1.30;0.90;;;24.90;99.90;;;;;;4973526;28;20204;-83
2021/09/14 10:23:28;;;;;;;1.43;1.10;;;24.40;99.90;;;;;;4968254;28;20188;-84
2021/09/14 10:26:05;;;;;;;0.67;0.60;;;24.20;99.90;;;;;;4972997;28;20192;-84
2021/09/14 10:28:44;;;;;;;1.47;0.50;;;24.30;99.90;;;;;;4973535;28;20218;-84
2021/09/14 10:31:21;;;;;;;0.40;0.40;;;24.80;99.90;;;;;;4968481;28;20343;-84
2021/09/14 10:33:46;;;;;;;1.80;0.50;;;24.90;99.90;;;;;;4970566;28;20188;-84
2021/09/14 10:36:14;;;;;;;1.33;0.90;;;24.70;99.90;;;;;;4970855;28;20192;-84
2021/09/14 10:38:49;;;;;;;0.60;0.60;;;25.10;99.90;;;;;;4972354;28;20200;-84
2021/09/14 10:41:16;;;;;;;0.97;0.97;;;25.40;99.90;;;;;;4958995;28;20568;-84
2021/09/14 10:43:53;;;;;;;0.57;0.57;;;25.10;99.90;;;;;;4967390;28;20537;-83
2021/09/14 10:46:23;;;;;;;1.80;0.70;;;25.40;99.90;;;;;;4967860;28;20203;-84
2021/09/14 10:48:51;;;;;;;0.90;0.87;;;25.20;99.90;;;;;;4970789;28;20215;-84
2021/09/14 10:51:18;;;;;;;0.87;0.83;;;24.90;99.90;;;;;;4960497;28;20188;-84
2021/09/14 10:53:57;;;;;;;1.27;1.17;;;24.80;99.90;;;;;;4962172;28;20283;-84
2021/09/14 10:56:24;;;;;;;0.77;0.77;;;25.10;99.90;;;;;;4973185;28;20646;-84
2021/09/14 10:58:50;;;;;;;0.90;0.87;;;25.20;99.90;;;;;;4959273;28;20193;-84
2021/09/14 11:01:23;;;;;;;1.23;1.10;;;25.00;99.90;;;;;;4964778;28;20267;-84
2021/09/14 11:03:51;;;;;;;0.63;0.53;;;25.10;99.90;;;;;;4970182;28;20199;-84
2021/09/14 11:06:17;;;;;;;0.70;0.60;;;25.60;99.90;;;;;;4963954;28;20189;-84
2021/09/14 11:08:45;;;;;;;0.43;0.43;;;26.00;99.90;;;;;;4962093;28;20279;-84
2021/09/14 11:11:18;;;;;;;0.70;0.70;;;26.40;99.90;;;;;;4970938;28;20201;-84
2021/09/14 11:13:44;;;;;;;0.50;0.50;;;26.60;99.90;;;;;;4971054;28;20791;-84
2021/09/14 11:16:10;;;;;;;0.60;0.60;;;26.50;99.90;;;;;;4961728;28;20199;-84
2021/09/14 11:18:36;;;;;;;0.63;0.63;;;26.50;99.90;;;;;;4968330;28;20218;-84
2021/09/14 11:21:22;;;;;;;1.60;1.00;;;26.70;99.90;;;;;;4964980;28;20291;-84
2021/09/14 11:23:50;;;;;;;0.80;0.60;;;26.80;99.90;;;;;;4965146;28;20192;-84
2021/09/14 11:26:18;;;;;;;0.87;0.77;;;26.90;99.90;;;;;;4960536;28;20193;-84
2021/09/14 11:28:58;;;;;;;2.33;0.73;;;26.90;99.90;;;;;;4968032;28;20200;-84
2021/09/14 11:31:27;;;;;;;0.33;0.33;;;27.10;99.90;;;;;;4964294;28;20243;-84
2021/09/14 11:33:53;;;;;;;0.80;0.80;;;27.20;99.90;;;;;;4970886;28;20216;-84
2021/09/14 11:36:18;;;;;;;0.30;0.30;;;26.80;99.90;;;;;;4972341;28;20212;-84
2021/09/14 11:38:44;;;;;;;0.93;0.60;;;26.90;99.90;;;;;;4972457;28;20183;-84
2021/09/14 11:41:12;;;;;;;1.20;1.10;;;26.90;99.90;;;;;;4971142;28;20216;-84
2021/09/14 11:43:42;;;;;;;1.40;1.30;;;26.70;99.90;;;;;;4959223;28;20667;-84
2021/09/14 11:46:17;;;;;;;2.73;1.93;;;26.60;99.90;;;;;;4969605;28;20193;-84
2021/09/14 11:48:58;;;;;;;0.67;0.53;;;26.80;99.90;;;;;;4970821;28;20250;-84
2021/09/14 11:51:25;;;;;;;1.87;1.00;;;26.70;99.90;;;;;;4969108;28;20188;-84
2021/09/14 11:53:52;;;;;;;0.67;0.67;;;26.80;99.90;;;;;;4960893;28;20192;-84
2021/09/14 11:56:19;;;;;;;0.40;0.40;;;27.00;99.90;;;;;;4959932;28;20648;-84
2021/09/14 11:58:47;;;;;;;0.80;0.73;;;27.10;99.90;;;;;;4966548;28;20323;-83
2021/09/14 12:01:15;;;;;;;0.60;0.60;;;27.10;99.90;;;;;;4972108;28;20196;-84
2021/09/14 12:03:49;;;;;;;0.40;0.40;;;27.20;99.90;;;;;;4971607;28;20184;-84
2021/09/14 12:06:26;;;;;;;1.03;0.90;;;27.00;99.90;;;;;;4962098;28;20204;-84
2021/09/14 12:08:55;;;;;;;1.40;1.00;;;27.10;99.90;;;;;;4964686;28;20297;-84
2021/09/14 12:11:29;;;;;;;0.80;0.80;;;27.50;99.90;;;;;;4968522;28;20208;-84
2021/09/14 12:13:57;;;;;;;2.80;1.07;;;27.00;99.90;;;;;;4966054;28;20181;-84
2021/09/14 12:16:27;;;;;;;2.03;1.23;;;26.50;99.90;;;;;;4971530;28;20184;-84
2021/09/14 12:18:53;;;;;;;2.53;0.80;;;26.60;99.90;;;;;;4972277;28;20651;-83
2021/09/14 12:21:19;;;;;;;1.20;1.10;;;27.10;99.90;;;;;;4971994;28;20185;-82
2021/09/14 12:23:44;;;;;;;2.10;1.50;;;27.30;99.90;;;;;;4967424;28;20189;-81
2021/09/14 12:26:19;;;;;;;0.97;0.87;;;27.60;99.90;;;;;;4970881;28;20272;-82
2021/09/14 12:28:45;;;;;;;0.30;0.30;;;27.80;99.90;;;;;;4987486;28;20310;-81
2021/09/14 12:31:10;;;;;;;1.00;0.87;;;28.20;99.90;;;;;;4964382;28;20694;-81
2021/09/14 12:33:36;;;;;;;0.57;0.57;;;28.40;99.90;;;;;;4972996;28;20285;-81
2021/09/14 12:36:01;;;;;;;1.00;0.90;;;28.60;99.90;;;;;;4969977;28;20578;-81
2021/09/14 12:38:27;;;;;;;0.73;0.73;;;28.80;99.90;;;;;;4977209;28;20552;-82
2021/09/14 12:40:52;;;;;;;0.93;0.90;;;28.40;99.90;;;;;;4971926;28;20235;-81
2021/09/14 12:43:18;;;;;;;0.87;0.87;;;28.20;99.90;;;;;;4972751;28;20192;-81
2021/09/14 12:45:44;;;;;;;0.82;0.68;;;28.10;99.90;;;;;;4970992;28;20190;-81
2021/09/14 12:48:09;;;;;;;0.73;0.73;;;28.00;99.90;;;;;;4969710;28;20200;-81
2021/09/14 12:50:35;;;;;;;1.17;1.17;;;27.80;99.90;;;;;;4976447;28;20781;-81
2021/09/14 12:53:03;;;;;;;0.80;0.80;;;27.40;99.90;;;;;;4978062;28;20595;-82
2021/09/14 12:55:32;;;;;;;0.63;0.63;;;27.30;99.90;;;;;;4972246;28;20185;-81
2021/09/14 12:57:58;;;;;;;0.67;0.67;;;27.30;99.90;;;;;;4970211;28;20181;-81
2021/09/14 13:00:24;;;;;;;0.83;0.60;;;27.30;99.90;;;;;;4969909;28;20615;-81
2021/09/14 13:02:49;;;;;;;0.90;0.70;;;27.20;99.90;;;;;;4973389;28;20275;-82
2021/09/14 13:05:15;;;;;;;0.47;0.47;;;27.20;99.90;;;;;;4965412;28;20243;-81
2021/09/14 13:07:40;;;;;;;0.63;0.63;;;27.20;99.90;;;;;;4974223;28;20180;-81
2021/09/14 13:10:09;;;;;;;0.77;0.77;;;27.10;99.90;;;;;;4974438;28;20228;-82
2021/09/14 13:12:35;;;;;;;0.93;0.53;;;27.10;99.90;;;;;;4977395;28;20275;-81
2021/09/14 13:17:45;;;;;;;0.60;0.60;;;27.10;99.90;;;;;;4979158;28;20215;-81
2021/09/14 13:20:11;;;;;;;0.30;0.30;;;27.10;99.90;;;;;;4977431;28;20215;-81
2021/09/14 13:22:37;;;;;;;0.40;0.40;;;27.10;99.90;;;;;;4964822;28;20694;-81
2021/09/14 13:25:03;;;;;;;0.47;0.47;;;27.20;99.90;;;;;;4968562;28;20235;-81
2021/09/14 13:27:28;;;;;;;1.30;0.97;;;27.10;99.90;;;;;;4979269;28;20203;-82
2021/09/14 13:29:54;;;;;;;0.60;0.60;;;27.10;99.90;;;;;;4965730;28;20213;-81
2021/09/14 13:32:20;;;;;;;1.00;1.00;;;27.30;99.90;;;;;;4970209;28;20188;-81
2021/09/14 13:34:46;;;;;;;0.57;0.50;;;27.10;99.90;;;;;;4968704;28;20192;-81
2021/09/14 13:37:12;;;;;;;0.67;0.67;;;27.10;99.90;;;;;;4972552;28;20318;-81
2021/09/14 13:39:38;;;;;;;0.70;0.70;;;27.10;99.90;;;;;;4963537;28;20209;-81
2021/09/14 13:42:06;;;;;;;0.60;0.60;;;27.10;99.90;;;;;;4976557;28;20188;-81
2021/09/14 13:47:07;;;;;;;0.87;0.60;;;26.60;99.90;;;;;;4963953;28;20270;-81
2021/09/14 13:49:33;;;;;;;0.60;0.60;;;26.90;99.90;;;;;;4970733;28;20227;-81
2021/09/14 13:51:58;;;;;;;0.83;0.60;;;27.10;99.90;;;;;;4968935;28;20184;-81